Time;durP1;ratioP1;P1;durP2;ratioP2;P2;SDS_P1;SDS_P2;PMS_P1;PMS_P2;Temp;Humidity;BMP_temperature;BMP_pressure;BME280_temperature;BME280_humidity;BME280_pressure;Samples;Min_cycle;Max_cycle;Signal;HPM_P1;HPM_P2
2021/04/20 07:18:21;;;;;;;17.05;15.45;;;;;;;;;;10602045;22;20044;-83
2021/04/20 07:23:41;;;;;;;21.92;19.83;;;;;;;;;;10567504;28;20397;-84
2021/04/20 07:28:48;;;;;;;16.20;14.65;;;;;;;;;;10578035;28;20032;-86
2021/04/20 07:34:08;;;;;;;16.80;15.30;;;;;;;;;;10560292;28;20028;-84
2021/04/20 07:39:20;;;;;;;13.50;12.20;;;;;;;;;;10563606;28;20024;-83
2021/04/20 07:44:41;;;;;;;12.57;11.25;;;;;;;;;;10562600;28;20035;-83
2021/04/20 07:50:01;;;;;;;12.63;9.63;;;;;;;;;;10551541;28;20044;-84
2021/04/20 07:55:19;;;;;;;11.52;10.40;;;;;;;;;;10554481;28;20027;-84
2021/04/20 08:00:22;;;;;;;12.73;10.27;;;;;;;;;;10559215;28;20031;-83
2021/04/20 08:05:23;;;;;;;12.20;10.13;;;;;;;;;;10559002;28;20027;-84
2021/04/20 08:10:43;;;;;;;13.25;10.30;;;;;;;;;;10557374;28;20020;-84
2021/04/20 08:15:48;;;;;;;10.10;9.05;;;;;;;;;;10548508;28;20044;-83
2021/04/20 08:20:52;;;;;;;9.18;8.27;;;;;;;;;;10543781;28;20027;-83
2021/04/20 08:31:39;;;;;;;10.10;8.95;;;;;;;;;;10557877;28;20035;-82
2021/04/20 08:36:56;;;;;;;9.90;8.40;;;;;;;;;;10552624;28;20474;-83
2021/04/20 08:42:07;;;;;;;9.65;8.75;;;;;;;;;;10550459;28;20565;-84
2021/04/20 08:47:20;;;;;;;9.18;8.10;;;;;;;;;;10543641;28;20028;-83
2021/04/20 08:52:21;;;;;;;9.07;8.18;;;;;;;;;;10566424;28;20028;-84
2021/04/20 08:57:28;;;;;;;14.70;13.40;;;;;;;;;;10548332;28;20023;-83
2021/04/20 09:02:35;;;;;;;15.55;14.15;;;;;;;;;;10568052;28;20059;-86
2021/04/20 09:07:52;;;;;;;7.93;7.22;;;;;;;;;;10549139;28;20366;-85
2021/04/20 09:12:56;;;;;;;8.50;7.70;;;;;;;;;;10554208;28;20057;-84
2021/04/20 09:18:01;;;;;;;8.82;7.95;;;;;;;;;;10553737;28;20035;-84
2021/04/20 09:23:04;;;;;;;18.77;17.17;;;;;;;;;;10550718;28;20047;-83
2021/04/20 09:28:09;;;;;;;8.45;7.72;;;;;;;;;;10552149;28;20038;-84
2021/04/20 09:33:21;;;;;;;10.05;8.98;;;;;;;;;;10552894;28;20032;-82
2021/04/20 09:38:23;;;;;;;11.80;10.65;;;;;;;;;;10552903;28;20073;-85
2021/04/20 09:43:24;;;;;;;9.50;8.20;;;;;;;;;;10552480;28;20091;-83
2021/04/20 09:48:32;;;;;;;8.27;7.47;;;;;;;;;;10557334;28;20032;-84
2021/04/20 09:53:52;;;;;;;15.05;13.75;;;;;;;;;;10558468;28;20020;-84
2021/04/20 09:58:53;;;;;;;14.20;12.90;;;;;;;;;;10561784;28;20038;-84
2021/04/20 10:04:11;;;;;;;8.02;7.30;;;;;;;;;;10561077;28;20024;-82
2021/04/20 10:09:20;;;;;;;13.82;11.82;;;;;;;;;;10557497;28;20020;-83
2021/04/20 10:14:46;;;;;;;12.65;11.55;;;;;;;;;;10557868;28;20046;-84
2021/04/20 10:19:53;;;;;;;14.30;13.00;;;;;;;;;;10558566;28;20020;-84
2021/04/20 10:25:04;;;;;;;11.98;10.93;;;;;;;;;;10559309;28;20028;-82
2021/04/20 10:30:15;;;;;;;13.98;12.77;;;;;;;;;;10559155;28;20031;-85
2021/04/20 10:35:39;;;;;;;12.70;11.65;;;;;;;;;;10575465;28;20390;-84
2021/04/20 10:40:42;;;;;;;15.55;14.15;;;;;;;;;;10560655;28;20024;-85
2021/04/20 10:45:44;;;;;;;14.15;12.93;;;;;;;;;;10561371;28;20093;-84
2021/04/20 10:50:49;;;;;;;9.38;7.47;;;;;;;;;;10550183;28;20024;-84
2021/04/20 10:55:52;;;;;;;16.95;15.35;;;;;;;;;;10553702;28;20036;-84
2021/04/20 11:00:54;;;;;;;13.73;12.43;;;;;;;;;;10552636;28;20051;-84
2021/04/20 11:05:55;;;;;;;14.18;12.77;;;;;;;;;;10571573;28;20047;-85
2021/04/20 11:10:56;;;;;;;12.60;11.55;;;;;;;;;;10553833;28;20461;-84
2021/04/20 11:15:57;;;;;;;8.95;8.15;;;;;;;;;;10554289;28;20036;-84
2021/04/20 11:21:01;;;;;;;11.63;10.63;;;;;;;;;;10554063;28;20092;-83
2021/04/20 11:26:09;;;;;;;16.45;14.85;;;;;;;;;;10555193;28;20386;-84
2021/04/20 11:31:19;;;;;;;11.50;10.40;;;;;;;;;;10552560;28;20054;-83
2021/04/20 11:36:21;;;;;;;13.00;11.90;;;;;;;;;;10552649;28;20036;-83
2021/04/20 11:41:30;;;;;;;10.85;9.93;;;;;;;;;;10549381;28;20028;-83
2021/04/20 11:46:32;;;;;;;10.65;9.73;;;;;;;;;;10545713;28;20031;-83
2021/04/20 11:51:34;;;;;;;10.85;9.85;;;;;;;;;;10545265;28;20038;-82
2021/04/20 11:56:36;;;;;;;14.20;13.00;;;;;;;;;;10532689;28;20469;-83
2021/04/20 12:01:38;;;;;;;13.27;12.05;;;;;;;;;;10537183;28;20016;-86
2021/04/20 12:07:05;;;;;;;12.30;11.20;;;;;;;;;;10547630;28;20030;-83
2021/04/20 12:12:07;;;;;;;13.57;12.38;;;;;;;;;;10542657;28;20176;-84
2021/04/20 12:17:08;;;;;;;12.95;11.85;;;;;;;;;;10567295;28;20469;-83
2021/04/20 12:22:09;;;;;;;10.05;9.05;;;;;;;;;;10548759;28;20507;-83
2021/04/20 12:27:11;;;;;;;6.50;6.00;;;;;;;;;;10566831;28;20397;-83
2021/04/20 12:32:13;;;;;;;12.85;11.63;;;;;;;;;;10544579;28;20032;-84
2021/04/20 12:37:14;;;;;;;6.63;5.93;;;;;;;;;;10549954;28;20020;-84
2021/04/20 12:42:17;;;;;;;12.10;11.00;;;;;;;;;;10549053;28;20469;-82
2021/04/20 12:47:18;;;;;;;7.70;7.00;;;;;;;;;;10550977;28;20115;-82
2021/04/20 12:52:23;;;;;;;7.75;7.05;;;;;;;;;;10545105;28;20030;-83
2021/04/20 12:57:30;;;;;;;7.20;6.60;;;;;;;;;;10545147;28;20111;-85
2021/04/20 13:02:32;;;;;;;11.23;10.13;;;;;;;;;;10561459;28;20043;-82
2021/04/20 13:07:34;;;;;;;7.50;6.85;;;;;;;;;;10546074;28;20115;-82
2021/04/20 13:12:35;;;;;;;12.73;11.52;;;;;;;;;;10546498;28;20044;-82
2021/04/20 13:17:37;;;;;;;7.78;7.00;;;;;;;;;;10538615;22;20044;-83
2021/04/20 13:22:38;;;;;;;7.35;6.63;;;;;;;;;;10514047;28;20491;-85
2021/04/20 13:56:36;;;;;;;8.32;7.50;;;;;;;;;;10506216;28;20036;-86
2021/04/20 14:02:01;;;;;;;10.60;9.73;;;;;;;;;;10506572;28;20039;-87
2021/04/20 14:24:39;;;;;;;9.15;8.25;;;;;;;;;;10427134;28;20033;-86
2021/04/20 14:30:29;;;;;;;8.85;8.05;;;;;;;;;;10342031;28;20112;-87
2021/04/20 14:36:08;;;;;;;7.97;7.28;;;;;;;;;;10408457;28;20041;-87
2021/04/20 16:17:43;;;;;;;9.52;8.55;;;;;;;;;;10518902;28;20058;-87
2021/04/20 16:29:02;;;;;;;11.13;10.13;;;;;;;;;;10494183;28;20020;-86
2021/04/20 16:34:11;;;;;;;13.57;12.38;;;;;;;;;;10515083;28;20402;-86
2021/04/20 16:39:48;;;;;;;14.43;13.02;;;;;;;;;;10434348;28;20061;-85
2021/04/20 16:45:03;;;;;;;10.02;9.13;;;;;;;;;;10443485;28;20036;-85
2021/04/20 16:56:02;;;;;;;13.75;12.60;;;;;;;;;;10513179;28;20091;-84
2021/04/20 17:01:24;;;;;;;15.38;14.00;;;;;;;;;;10511327;28;20070;-85
2021/04/20 17:07:06;;;;;;;9.98;8.98;;;;;;;;;;10514141;28;20032;-87
2021/04/20 17:18:08;;;;;;;13.25;11.98;;;;;;;;;;10514701;28;20017;-85
2021/04/20 17:24:01;;;;;;;;;;;;;;;;;;;;;
2021/04/20 17:29:32;;;;;;;12.60;11.30;;;;;;;;;;10387146;28;20036;-85
2021/04/20 17:35:07;;;;;;;15.63;14.23;;;;;;;;;;10368303;28;20488;-86
2021/04/20 17:40:27;;;;;;;12.98;11.70;;;;;;;;;;10371730;28;20040;-86
2021/04/20 17:45:50;;;;;;;9.95;9.05;;;;;;;;;;10368208;28;20125;-85
2021/04/20 17:51:19;;;;;;;13.43;12.20;;;;;;;;;;10376335;28;20045;-85
2021/04/20 17:56:58;;;;;;;11.68;10.57;;;;;;;;;;10374905;28;20044;-86
2021/04/20 18:02:38;;;;;;;11.52;10.48;;;;;;;;;;10507689;28;20032;-86
2021/04/20 18:08:20;;;;;;;9.55;8.75;;;;;;;;;;10507220;28;20494;-86
2021/04/20 18:14:07;;;;;;;13.98;12.77;;;;;;;;;;10411991;28;20121;-86
2021/04/20 18:19:44;;;;;;;14.35;13.00;;;;;;;;;;10249015;28;20031;-88
2021/04/20 18:53:34;;;;;;;7.78;7.07;;;;;;;;;;10514812;28;20040;-87
2021/04/20 18:59:07;;;;;;;8.45;6.65;;;;;;;;;;10508304;28;20025;-87
2021/04/20 19:10:24;;;;;;;7.65;6.18;;;;;;;;;;10480063;28;20024;-88
2021/04/20 19:15:56;;;;;;;;;;;;;;;;;;;;;
2021/04/20 19:21:09;;;;;;;7.60;6.03;;;;;;;;;;10516772;28;20028;-86
2021/04/20 19:26:48;;;;;;;7.85;7.00;;;;;;;;;;10514219;28;20033;-86
2021/04/20 19:32:15;;;;;;;;;;;;;;;;;;;;;
2021/04/20 19:37:48;;;;;;;6.00;5.07;;;;;;;;;;10385229;28;20018;-85
2021/04/20 19:43:30;;;;;;;;;;;;;;;;;;;;;
2021/04/20 19:48:49;;;;;;;5.22;4.43;;;;;;;;;;10385367;28;20512;-86
2021/04/20 19:54:20;;;;;;;7.82;6.10;;;;;;;;;;10510962;28;20067;-87
2021/04/20 20:00:12;;;;;;;;;;;;;;;;;;;;;
2021/04/20 20:11:56;;;;;;;5.60;4.72;;;;;;;;;;10459759;28;20067;-88
